Time;durP1;ratioP1;P1;durP2;ratioP2;P2;SDS_P1;SDS_P2;PMS_P1;PMS_P2;Temp;Humidity;BMP_temperature;BMP_pressure;BME280_temperature;BME280_humidity;BME280_pressure;Samples;Min_cycle;Max_cycle;Signal;HPM_P1;HPM_P2
2023/04/30 00:01:57;;;;;;;2.53;1.40;;;6.60;99.90;;;;;;5072183;28;20403;-68
2023/04/30 00:04:22;;;;;;;5.57;1.77;;;6.50;99.90;;;;;;5073641;28;20205;-67
2023/04/30 00:06:48;;;;;;;4.80;1.65;;;6.50;99.90;;;;;;5072458;28;20072;-67
2023/04/30 00:09:14;;;;;;;1.65;1.08;;;6.50;99.90;;;;;;5073652;28;20079;-68
2023/04/30 00:11:39;;;;;;;3.72;1.40;;;6.50;99.90;;;;;;5073196;28;20051;-67
2023/04/30 00:14:05;;;;;;;5.97;1.35;;;6.50;99.90;;;;;;5073493;28;20044;-68
2023/04/30 00:16:31;;;;;;;2.00;1.25;;;6.40;99.90;;;;;;5073159;28;20056;-68
2023/04/30 00:18:56;;;;;;;13.15;2.35;;;6.40;99.90;;;;;;5073645;28;20569;-68
2023/04/30 00:21:22;;;;;;;7.50;1.50;;;6.40;99.90;;;;;;5073299;28;20043;-68
2023/04/30 00:23:48;;;;;;;4.60;1.27;;;6.40;99.90;;;;;;5073341;28;20033;-68
2023/04/30 00:26:14;;;;;;;1.63;1.20;;;6.30;99.90;;;;;;5073186;28;20083;-67
2023/04/30 00:28:40;;;;;;;1.55;1.02;;;6.30;99.90;;;;;;5073370;28;20120;-67
2023/04/30 00:31:05;;;;;;;2.92;1.30;;;6.30;99.90;;;;;;5072838;28;20143;-67
2023/04/30 00:33:31;;;;;;;4.07;1.73;;;6.20;99.90;;;;;;5073235;28;20437;-68
2023/04/30 00:35:57;;;;;;;1.92;1.23;;;6.20;99.90;;;;;;5073198;28;20583;-67
2023/04/30 00:38:23;;;;;;;2.60;1.70;;;6.30;99.90;;;;;;5073234;28;20174;-67
2023/04/30 00:40:48;;;;;;;4.47;1.33;;;6.20;99.90;;;;;;5073214;28;20036;-67
2023/04/30 00:43:14;;;;;;;3.25;1.52;;;6.20;99.90;;;;;;5072737;28;20032;-67
2023/04/30 00:45:40;;;;;;;2.65;1.27;;;6.10;99.90;;;;;;5072747;28;20040;-67
2023/04/30 00:48:06;;;;;;;4.13;1.90;;;6.30;99.90;;;;;;5072647;28;20048;-67
2023/04/30 00:50:34;;;;;;;3.78;1.55;;;6.10;99.90;;;;;;5073176;28;20489;-68
2023/04/30 00:53:00;;;;;;;5.05;2.03;;;6.00;99.90;;;;;;5072870;28;20062;-67
2023/04/30 00:55:25;;;;;;;3.92;1.48;;;6.00;99.90;;;;;;5071478;28;20123;-67
2023/04/30 00:57:51;;;;;;;4.10;1.50;;;6.00;99.90;;;;;;5072873;28;20044;-67
2023/04/30 01:00:17;;;;;;;3.90;1.38;;;6.00;99.90;;;;;;5072769;28;20464;-67
2023/04/30 01:02:43;;;;;;;9.57;1.55;;;6.00;99.90;;;;;;5071871;28;20040;-67
2023/04/30 01:05:09;;;;;;;4.32;1.75;;;6.00;99.90;;;;;;5072854;28;20040;-67
2023/04/30 01:07:37;;;;;;;2.97;1.63;;;5.90;99.90;;;;;;5072796;28;20037;-67
2023/04/30 01:10:04;;;;;;;3.00;1.80;;;5.90;99.90;;;;;;5072644;28;20476;-67
2023/04/30 01:12:55;;;;;;;3.10;1.63;;;5.90;99.90;;;;;;5072605;28;20070;-67
2023/04/30 01:15:31;;;;;;;2.47;1.13;;;5.80;99.90;;;;;;5071009;28;20393;-67
2023/04/30 01:18:09;;;;;;;2.95;1.60;;;5.80;99.90;;;;;;5072697;28;20080;-67
2023/04/30 01:20:42;;;;;;;2.42;1.40;;;5.80;99.90;;;;;;5072459;28;20124;-67
2023/04/30 01:23:30;;;;;;;2.97;1.80;;;5.80;99.90;;;;;;5072451;28;20112;-67
2023/04/30 01:26:32;;;;;;;1.30;1.00;;;5.80;99.90;;;;;;5072267;28;20048;-67
2023/04/30 01:29:01;;;;;;;2.80;1.88;;;5.80;99.90;;;;;;5068143;28;20044;-67
2023/04/30 01:31:27;;;;;;;1.98;1.38;;;5.70;99.90;;;;;;5072453;28;20039;-66
2023/04/30 01:33:53;;;;;;;4.25;1.52;;;5.70;99.90;;;;;;5072474;28;20055;-66
2023/04/30 01:36:39;;;;;;;3.03;1.80;;;5.70;99.90;;;;;;5072560;28;20491;-67
2023/04/30 01:39:41;;;;;;;2.42;1.38;;;5.70;99.90;;;;;;5072574;28;20041;-66
2023/04/30 01:42:12;;;;;;;2.03;1.30;;;5.70;99.90;;;;;;5065052;28;20112;-66
2023/04/30 01:45:06;;;;;;;2.58;1.77;;;5.60;99.90;;;;;;5072455;28;20125;-66
2023/04/30 01:47:43;;;;;;;4.82;1.73;;;5.60;99.90;;;;;;5063521;28;20120;-66
2023/04/30 01:50:26;;;;;;;3.55;1.75;;;5.60;99.90;;;;;;5072252;28;20036;-66
2023/04/30 01:52:55;;;;;;;6.28;1.70;;;5.50;99.90;;;;;;5072369;28;20040;-67
2023/04/30 01:55:45;;;;;;;4.85;1.80;;;5.50;99.90;;;;;;5070661;28;20412;-67
2023/04/30 01:58:13;;;;;;;3.63;1.30;;;5.50;99.90;;;;;;5070968;28;20089;-67
2023/04/30 02:00:40;;;;;;;2.30;1.48;;;5.40;99.90;;;;;;5076208;28;20696;-66
2023/04/30 02:03:06;;;;;;;2.25;1.75;;;5.40;99.90;;;;;;5076029;28;20070;-66
2023/04/30 02:05:31;;;;;;;2.65;1.40;;;5.40;99.90;;;;;;5074690;28;20036;-66
2023/04/30 02:07:57;;;;;;;5.57;1.83;;;5.40;99.90;;;;;;5075931;28;20385;-66
2023/04/30 02:10:25;;;;;;;2.17;1.58;;;5.30;99.90;;;;;;5074462;28;20427;-66
2023/04/30 02:12:51;;;;;;;4.25;1.60;;;5.40;99.90;;;;;;5076064;28;20051;-67
2023/04/30 02:15:17;;;;;;;3.40;1.83;;;5.30;99.90;;;;;;5075781;28;20484;-66
2023/04/30 02:17:42;;;;;;;2.83;1.75;;;5.30;99.90;;;;;;5075305;28;20048;-67
2023/04/30 02:20:09;;;;;;;1.92;1.30;;;5.30;99.90;;;;;;5075489;28;20047;-66
2023/04/30 02:22:35;;;;;;;3.35;1.80;;;5.30;99.90;;;;;;5075711;28;20415;-66
2023/04/30 02:25:01;;;;;;;4.47;1.63;;;5.30;99.90;;;;;;5075289;28;20041;-66
2023/04/30 02:27:29;;;;;;;3.50;2.00;;;5.30;99.90;;;;;;5075302;28;20450;-67
2023/04/30 02:29:55;;;;;;;7.18;2.13;;;5.20;99.90;;;;;;5075546;28;20072;-66
2023/04/30 02:32:20;;;;;;;3.63;1.70;;;5.30;99.90;;;;;;5075719;28;20403;-66
2023/04/30 02:34:46;;;;;;;3.15;1.48;;;5.20;99.90;;;;;;5075309;28;20036;-66
2023/04/30 02:37:12;;;;;;;3.67;1.67;;;5.20;99.90;;;;;;5075295;28;20052;-66
2023/04/30 02:39:37;;;;;;;2.90;1.98;;;5.20;99.90;;;;;;5075466;28;20036;-66
2023/04/30 02:42:05;;;;;;;4.75;1.67;;;5.20;99.90;;;;;;5075088;28;20144;-66
2023/04/30 02:44:31;;;;;;;3.35;1.40;;;5.10;99.90;;;;;;5074841;28;20044;-66
2023/04/30 02:46:56;;;;;;;2.88;1.80;;;5.10;99.90;;;;;;5075237;28;20040;-66
2023/04/30 02:49:22;;;;;;;3.05;1.70;;;5.10;99.90;;;;;;5074799;28;20423;-66
2023/04/30 02:51:47;;;;;;;3.50;2.20;;;5.00;99.90;;;;;;5075273;28;20042;-66
2023/04/30 02:54:13;;;;;;;6.13;1.83;;;5.00;99.90;;;;;;5074989;28;20048;-66
2023/04/30 02:56:39;;;;;;;3.17;1.85;;;5.00;99.90;;;;;;5074881;28;20040;-66
2023/04/30 02:59:05;;;;;;;4.15;2.10;;;5.00;99.90;;;;;;5074851;28;20107;-66
2023/04/30 03:01:30;;;;;;;2.70;1.60;;;5.00;99.90;;;;;;5073819;28;20040;-66
2023/04/30 03:03:57;;;;;;;4.20;1.63;;;4.90;99.90;;;;;;5074608;28;20029;-66
2023/04/30 03:06:23;;;;;;;4.47;2.00;;;4.90;99.90;;;;;;5074653;28;20381;-66
2023/04/30 03:08:48;;;;;;;4.35;1.60;;;5.30;99.90;;;;;;5074812;28;20090;-66
2023/04/30 03:11:14;;;;;;;3.67;2.17;;;4.90;99.90;;;;;;5074719;28;20068;-66
2023/04/30 03:13:40;;;;;;;3.55;2.10;;;4.90;99.90;;;;;;5074618;28;20037;-66
2023/04/30 03:16:05;;;;;;;3.67;1.98;;;4.80;99.90;;;;;;5074246;28;20049;-66
2023/04/30 03:18:31;;;;;;;4.75;1.63;;;4.80;99.90;;;;;;5074457;28;20048;-66
2023/04/30 03:20:57;;;;;;;6.38;2.00;;;4.80;99.90;;;;;;5074328;28;20115;-66
2023/04/30 03:23:25;;;;;;;6.40;2.30;;;4.90;99.90;;;;;;5074718;28;20141;-66
2023/04/30 03:25:51;;;;;;;3.33;1.75;;;4.80;99.90;;;;;;5074366;28;20033;-66
2023/04/30 03:28:16;;;;;;;4.45;1.80;;;4.90;99.90;;;;;;5072998;28;20044;-66
2023/04/30 03:30:42;;;;;;;2.92;1.90;;;4.90;99.90;;;;;;5072941;28;20044;-66
2023/04/30 03:33:08;;;;;;;5.20;1.80;;;4.90;99.90;;;;;;5074570;28;20060;-66
2023/04/30 03:35:33;;;;;;;4.50;2.20;;;4.90;99.90;;;;;;5074171;28;20040;-66
2023/04/30 03:38:00;;;;;;;3.75;1.77;;;4.90;99.90;;;;;;5074150;28;20048;-66
2023/04/30 03:40:26;;;;;;;4.15;1.85;;;4.90;99.90;;;;;;5074249;28;20373;-66
2023/04/30 03:42:51;;;;;;;3.50;2.20;;;4.90;99.90;;;;;;5074356;28;20039;-66
2023/04/30 03:45:17;;;;;;;5.82;2.60;;;4.90;99.90;;;;;;5073843;28;20076;-66
2023/04/30 03:47:43;;;;;;;6.57;1.80;;;5.00;99.90;;;;;;5074321;28;20032;-66
2023/04/30 03:50:10;;;;;;;4.18;2.25;;;5.00;99.90;;;;;;5073925;28;20044;-66
2023/04/30 03:52:36;;;;;;;4.68;2.10;;;5.00;99.90;;;;;;5074074;28;20111;-66
2023/04/30 03:55:05;;;;;;;3.72;2.47;;;5.00;99.90;;;;;;5073509;28;20037;-66
2023/04/30 03:57:31;;;;;;;5.07;2.35;;;5.00;99.90;;;;;;5073859;28;20392;-66
2023/04/30 03:59:58;;;;;;;3.63;2.22;;;5.10;99.90;;;;;;5072265;28;20162;-66
2023/04/30 04:02:24;;;;;;;2.92;2.00;;;5.10;99.90;;;;;;5073761;28;20041;-66
2023/04/30 04:04:50;;;;;;;4.40;2.05;;;5.10;99.90;;;;;;5073889;28;20043;-66
2023/04/30 04:07:16;;;;;;;4.00;2.20;;;5.10;99.90;;;;;;5073267;28;20053;-66
2023/04/30 04:09:42;;;;;;;8.40;2.35;;;5.10;99.90;;;;;;5072406;28;20045;-66
2023/04/30 04:12:07;;;;;;;4.07;2.10;;;5.10;99.90;;;;;;5073462;28;20059;-66
2023/04/30 04:14:33;;;;;;;4.57;2.28;;;5.10;99.90;;;;;;5073655;28;20036;-66
2023/04/30 04:17:00;;;;;;;3.83;2.35;;;5.10;99.90;;;;;;5073136;28;20049;-66
2023/04/30 04:19:26;;;;;;;5.78;2.35;;;5.10;99.90;;;;;;5072058;28;20515;-67
2023/04/30 04:21:52;;;;;;;3.72;2.25;;;5.20;99.90;;;;;;5072726;28;20036;-67
2023/04/30 04:24:18;;;;;;;6.53;2.40;;;5.20;99.90;;;;;;5073194;28;20387;-67
2023/04/30 04:26:43;;;;;;;4.40;2.58;;;5.20;99.90;;;;;;5071769;28;20507;-67
2023/04/30 04:29:11;;;;;;;4.15;2.05;;;5.30;99.90;;;;;;5071949;28;20044;-67
2023/04/30 04:31:37;;;;;;;4.50;2.35;;;5.30;99.90;;;;;;5073254;28;20044;-67
2023/04/30 04:34:04;;;;;;;3.92;2.38;;;5.30;99.90;;;;;;5073367;28;20048;-67
2023/04/30 04:36:30;;;;;;;4.97;2.63;;;5.30;99.90;;;;;;5073202;28;20045;-67
2023/04/30 04:38:56;;;;;;;2.28;1.70;;;5.30;99.90;;;;;;5072998;28;20059;-67
2023/04/30 04:41:23;;;;;;;2.88;1.77;;;5.30;99.90;;;;;;5073049;28;20123;-67
2023/04/30 04:43:49;;;;;;;3.30;2.13;;;5.20;99.90;;;;;;5072762;28;20047;-67
2023/04/30 04:46:15;;;;;;;2.30;1.70;;;5.20;99.90;;;;;;5072912;28;20044;-67
2023/04/30 04:48:41;;;;;;;4.00;2.25;;;5.30;99.90;;;;;;5072830;28;20037;-67
2023/04/30 04:51:07;;;;;;;4.30;2.50;;;5.40;99.90;;;;;;5072751;28;20048;-67
2023/04/30 04:53:33;;;;;;;3.72;2.03;;;5.40;99.90;;;;;;5072743;28;20040;-67
2023/04/30 04:55:58;;;;;;;4.70;2.35;;;5.50;99.90;;;;;;5071535;28;20114;-67
2023/04/30 04:58:24;;;;;;;6.10;2.35;;;5.60;99.90;;;;;;5072662;28;20063;-67
2023/04/30 05:00:50;;;;;;;4.57;2.50;;;5.70;99.90;;;;;;5071644;28;20495;-67
2023/04/30 05:03:16;;;;;;;6.82;2.55;;;5.80;99.90;;;;;;5072456;28;20519;-67
2023/04/30 05:05:42;;;;;;;3.47;1.85;;;6.90;99.90;;;;;;5071563;28;20037;-67
2023/04/30 05:08:07;;;;;;;4.45;2.30;;;5.90;99.90;;;;;;5072701;28;20536;-67
2023/04/30 05:10:33;;;;;;;5.80;2.58;;;6.50;99.90;;;;;;5072375;28;20075;-67
2023/04/30 05:12:59;;;;;;;4.30;2.35;;;6.00;99.90;;;;;;5072589;28;20048;-67
2023/04/30 05:15:25;;;;;;;6.05;2.10;;;6.00;99.90;;;;;;5071564;28;20464;-68
2023/04/30 05:17:50;;;;;;;6.43;2.83;;;6.10;99.90;;;;;;5072576;28;20116;-67
2023/04/30 05:20:16;;;;;;;3.85;2.40;;;6.10;99.90;;;;;;5072199;28;20403;-68
2023/04/30 05:22:41;;;;;;;5.63;2.85;;;6.10;99.90;;;;;;5072378;28;20127;-67
2023/04/30 05:25:07;;;;;;;5.05;2.25;;;6.10;99.90;;;;;;5072308;28;20044;-67
2023/04/30 05:27:33;;;;;;;3.60;1.73;;;6.20;99.90;;;;;;5072460;28;20044;-67
2023/04/30 05:29:59;;;;;;;5.35;1.90;;;6.20;99.90;;;;;;5072471;28;20495;-67
2023/04/30 05:32:26;;;;;;;5.22;2.35;;;6.40;99.90;;;;;;5073049;28;20079;-67
2023/04/30 05:34:52;;;;;;;6.30;1.90;;;6.40;99.90;;;;;;5076246;28;20487;-67
2023/04/30 05:37:19;;;;;;;2.83;2.00;;;6.50;99.90;;;;;;5076497;28;20085;-66
2023/04/30 05:39:45;;;;;;;2.00;1.30;;;6.60;99.90;;;;;;5076349;28;20042;-66
2023/04/30 05:42:11;;;;;;;5.72;2.17;;;6.60;99.90;;;;;;5076352;28;20041;-67
2023/04/30 05:44:36;;;;;;;2.30;1.70;;;6.70;99.90;;;;;;5076366;28;20491;-67
2023/04/30 05:47:02;;;;;;;4.25;1.98;;;6.90;99.90;;;;;;5076302;28;20044;-67
2023/04/30 05:49:28;;;;;;;3.40;1.75;;;6.90;99.90;;;;;;5076130;28;20041;-66
2023/04/30 05:51:54;;;;;;;3.45;1.70;;;7.00;99.90;;;;;;5076248;28;20123;-70
2023/04/30 05:54:19;;;;;;;5.63;1.75;;;7.10;99.90;;;;;;5075902;28;20123;-67
2023/04/30 05:56:45;;;;;;;4.97;2.05;;;7.20;99.60;;;;;;5076213;28;20032;-66
2023/04/30 05:59:10;;;;;;;9.40;2.47;;;7.30;98.30;;;;;;5075865;28;20062;-68
2023/04/30 06:01:36;;;;;;;10.60;1.90;;;7.40;98.30;;;;;;5076031;28;20044;-67
2023/04/30 06:04:03;;;;;;;3.88;1.95;;;7.40;93.60;;;;;;5075895;28;20476;-67
2023/04/30 06:06:30;;;;;;;3.20;1.60;;;7.50;92.40;;;;;;5076107;28;20044;-65
2023/04/30 06:08:56;;;;;;;3.78;1.92;;;7.60;92.40;;;;;;5075589;28;20096;-67
2023/04/30 06:11:24;;;;;;;6.47;1.88;;;7.70;90.70;;;;;;5075985;28;20033;-66
2023/04/30 06:13:50;;;;;;;7.22;2.40;;;7.80;90.90;;;;;;5075524;28;20038;-66
2023/04/30 06:16:16;;;;;;;2.50;1.73;;;7.90;90.00;;;;;;5075625;28;20061;-66
2023/04/30 06:18:41;;;;;;;3.65;1.80;;;8.00;82.30;;;;;;5076022;28;20444;-66
2023/04/30 06:21:07;;;;;;;4.50;1.90;;;8.00;73.00;;;;;;5075648;28;20365;-65
2023/04/30 06:23:32;;;;;;;8.55;2.13;;;8.00;63.30;;;;;;5075780;28;20036;-66
2023/04/30 06:25:58;;;;;;;3.85;1.75;;;8.00;44.30;;;;;;5075526;28;20028;-66
2023/04/30 06:28:24;;;;;;;6.47;1.98;;;7.90;20.60;;;;;;5075463;28;20203;-66
2023/04/30 06:30:50;;;;;;;4.63;1.90;;;7.90;28.50;;;;;;5075454;28;20117;-67
2023/04/30 06:33:16;;;;;;;3.10;1.98;;;8.00;22.80;;;;;;5075152;28;20052;-66
2023/04/30 06:35:42;;;;;;;9.07;1.90;;;8.10;23.70;;;;;;5075212;28;20431;-66
2023/04/30 06:38:07;;;;;;;3.40;1.52;;;8.10;13.50;;;;;;5075547;28;20134;-66
2023/04/30 06:40:34;;;;;;;2.95;1.67;;;8.20;2.00;;;;;;5075507;28;20036;-65
2023/04/30 06:42:59;;;;;;;3.25;1.17;;;8.40;5.00;;;;;;5075324;28;20094;-66
2023/04/30 06:45:25;;;;;;;2.88;1.33;;;8.50;1.00;;;;;;5073328;28;20075;-66
2023/04/30 06:47:52;;;;;;;1.88;1.35;;;8.60;1.00;;;;;;5075720;28;20481;-66
2023/04/30 06:50:18;;;;;;;2.28;1.25;;;8.70;1.00;;;;;;5075533;28;20044;-66
2023/04/30 06:52:43;;;;;;;3.58;1.65;;;8.90;1.00;;;;;;5075561;28;20048;-66
2023/04/30 06:55:10;;;;;;;3.42;1.65;;;9.20;1.00;;;;;;5075451;28;20049;-67
2023/04/30 06:57:36;;;;;;;4.03;1.35;;;9.30;99.90;;;;;;5073832;28;20052;-66
2023/04/30 07:00:04;;;;;;;1.85;1.15;;;9.50;99.90;;;;;;5075368;28;20037;-66
2023/04/30 07:02:30;;;;;;;2.53;1.35;;;9.50;99.90;;;;;;5075030;28;20043;-66
2023/04/30 07:04:57;;;;;;;4.63;1.40;;;9.60;99.90;;;;;;5074954;28;20112;-66
2023/04/30 07:07:22;;;;;;;2.80;1.52;;;9.60;99.90;;;;;;5074943;28;20078;-67
2023/04/30 07:09:48;;;;;;;5.90;1.70;;;9.80;1.00;;;;;;5075077;28;20072;-67
2023/04/30 07:12:14;;;;;;;5.40;1.50;;;9.90;20.90;;;;;;5075238;28;20480;-66
2023/04/30 07:14:40;;;;;;;3.33;1.20;;;9.90;99.90;;;;;;5074963;28;20115;-66
2023/04/30 07:17:05;;;;;;;7.43;1.15;;;9.90;1.00;;;;;;5074736;28;20049;-65
2023/04/30 07:19:31;;;;;;;1.75;1.35;;;9.90;99.90;;;;;;5075072;28;20045;-67
2023/04/30 07:21:57;;;;;;;2.63;1.10;;;10.20;1.00;;;;;;5075000;28;20041;-67
2023/04/30 07:24:23;;;;;;;5.85;1.65;;;10.30;99.90;;;;;;5074666;28;20029;-69
2023/04/30 07:26:51;;;;;;;4.45;1.20;;;10.30;99.90;;;;;;5090574;28;20044;-66
2023/04/30 07:29:17;;;;;;;2.30;1.15;;;10.40;99.90;;;;;;5074812;28;20037;-65
2023/04/30 07:31:43;;;;;;;2.65;1.00;;;9.60;95.80;;;;;;5090106;28;20040;-65
2023/04/30 07:34:08;;;;;;;3.85;1.17;;;10.50;99.90;;;;;;5074483;28;20174;-66
2023/04/30 07:36:34;;;;;;;2.00;1.02;;;10.30;28.80;;;;;;5074709;28;20425;-65
2023/04/30 07:39:00;;;;;;;2.17;1.38;;;10.40;99.90;;;;;;5074451;28;20039;-65
2023/04/30 07:41:26;;;;;;;6.55;1.63;;;10.40;99.90;;;;;;5074176;28;20097;-65
2023/04/30 07:43:52;;;;;;;2.90;1.27;;;10.40;3.70;;;;;;5074480;28;20403;-66
2023/04/30 07:46:17;;;;;;;2.58;1.23;;;10.40;99.90;;;;;;5090110;28;20045;-65
2023/04/30 07:48:43;;;;;;;2.90;0.93;;;10.40;1.00;;;;;;5074365;28;20049;-66
2023/04/30 07:51:09;;;;;;;7.18;1.95;;;11.90;1.00;;;;;;5073933;28;20037;-65
2023/04/30 07:53:34;;;;;;;3.63;1.30;;;10.60;99.90;;;;;;5074003;28;20074;-66
2023/04/30 07:56:00;;;;;;;7.28;1.58;;;10.70;99.90;;;;;;5071465;28;20040;-65
2023/04/30 07:58:26;;;;;;;4.50;1.38;;;10.80;99.90;;;;;;5074129;28;20506;-67
2023/04/30 08:00:51;;;;;;;2.22;1.13;;;10.90;99.90;;;;;;5074086;28;20499;-66
2023/04/30 08:03:18;;;;;;;3.80;1.27;;;11.00;1.00;;;;;;5073691;28;20041;-66
2023/04/30 08:05:46;;;;;;;2.38;1.30;;;11.10;99.90;;;;;;5073967;28;20055;-66
2023/04/30 08:08:12;;;;;;;2.70;1.20;;;11.20;99.90;;;;;;5072704;28;20045;-66
2023/04/30 08:10:38;;;;;;;2.58;1.05;;;11.30;99.90;;;;;;5089229;28;20051;-66
2023/04/30 08:13:04;;;;;;;3.90;1.40;;;11.30;1.00;;;;;;5073851;28;20036;-66
2023/04/30 08:15:32;;;;;;;2.45;0.95;;;11.40;1.00;;;;;;5073660;28;20040;-67
2023/04/30 08:17:57;;;;;;;7.15;1.20;;;11.50;99.90;;;;;;5072053;28;20124;-66
2023/04/30 08:20:23;;;;;;;2.88;1.15;;;11.50;99.90;;;;;;5073480;28;20560;-66
2023/04/30 08:22:49;;;;;;;5.35;1.63;;;11.60;99.90;;;;;;5073690;28;20040;-66
2023/04/30 08:25:14;;;;;;;4.22;1.98;;;11.60;99.90;;;;;;5073608;28;20029;-66
2023/04/30 08:27:40;;;;;;;2.08;1.40;;;11.60;1.00;;;;;;5073240;28;20088;-66
2023/04/30 08:30:06;;;;;;;5.22;1.38;;;11.70;99.90;;;;;;5073511;28;20044;-66
2023/04/30 08:32:35;;;;;;;4.93;1.20;;;11.80;1.00;;;;;;5073163;28;20052;-66
2023/04/30 08:35:05;;;;;;;3.45;1.40;;;11.70;99.90;;;;;;5073479;28;20480;-66
2023/04/30 08:37:30;;;;;;;2.85;1.25;;;11.60;99.90;;;;;;5071820;28;20055;-69
2023/04/30 08:39:56;;;;;;;1.52;0.88;;;11.60;48.10;;;;;;5073369;28;20029;-67
2023/04/30 08:42:29;;;;;;;3.05;1.20;;;11.50;24.70;;;;;;5071603;28;20119;-66
2023/04/30 08:44:55;;;;;;;5.00;1.60;;;11.60;99.90;;;;;;5073164;28;20090;-66
2023/04/30 08:47:21;;;;;;;5.13;1.50;;;11.60;99.90;;;;;;5073286;28;20044;-66
2023/04/30 08:49:47;;;;;;;4.55;0.88;;;11.60;99.90;;;;;;5073275;28;20051;-66
2023/04/30 08:52:13;;;;;;;2.10;0.93;;;11.70;99.90;;;;;;5073245;28;20132;-66
2023/04/30 08:54:39;;;;;;;7.00;1.38;;;11.80;99.90;;;;;;5073206;28;20039;-66
2023/04/30 08:57:05;;;;;;;1.00;0.90;;;11.90;99.90;;;;;;5072901;28;20032;-66
2023/04/30 08:59:30;;;;;;;2.42;1.00;;;11.90;99.90;;;;;;5073288;28;20045;-66
2023/04/30 09:01:56;;;;;;;1.80;1.10;;;12.00;99.90;;;;;;5073132;28;20033;-66
2023/04/30 09:04:22;;;;;;;3.42;1.10;;;12.10;99.90;;;;;;5072755;28;20127;-66
2023/04/30 09:06:47;;;;;;;5.18;1.88;;;12.20;1.00;;;;;;5072836;28;20037;-66
2023/04/30 09:09:15;;;;;;;3.97;1.30;;;12.30;27.80;;;;;;5072486;28;20041;-66
2023/04/30 09:11:41;;;;;;;3.50;1.13;;;12.30;1.00;;;;;;5072877;28;20086;-73
2023/04/30 09:14:07;;;;;;;3.60;1.10;;;12.40;10.60;;;;;;5072594;28;20047;-69
2023/04/30 09:16:47;;;;;;;2.20;1.33;;;13.60;1.00;;;;;;5072463;28;20053;-66
2023/04/30 09:19:40;;;;;;;1.30;0.90;;;12.60;99.90;;;;;;5072931;28;20140;-67
2023/04/30 09:22:22;;;;;;;3.53;1.40;;;12.70;99.90;;;;;;5071419;28;20053;-66
2023/04/30 09:24:49;;;;;;;4.25;1.40;;;12.70;99.90;;;;;;5072825;28;20130;-65
2023/04/30 09:27:19;;;;;;;2.40;1.35;;;12.70;99.90;;;;;;5072764;28;20119;-66
2023/04/30 09:29:45;;;;;;;2.65;1.60;;;14.30;99.90;;;;;;5072868;28;20032;-64
2023/04/30 09:32:12;;;;;;;2.63;1.23;;;13.20;99.90;;;;;;5072702;28;20037;-65
2023/04/30 09:34:38;;;;;;;3.17;1.27;;;13.00;1.00;;;;;;5072861;28;20090;-66
2023/04/30 09:37:03;;;;;;;9.15;1.45;;;13.20;3.90;;;;;;5072630;28;20052;-66
2023/04/30 09:39:29;;;;;;;3.75;1.70;;;12.80;1.00;;;;;;5072851;28;20040;-66
2023/04/30 09:42:09;;;;;;;2.88;1.33;;;12.90;3.20;;;;;;5072252;28;20554;-65
2023/04/30 09:44:42;;;;;;;3.17;1.23;;;13.50;1.00;;;;;;5072327;28;20032;-65
2023/04/30 09:47:18;;;;;;;2.47;1.48;;;13.10;1.00;;;;;;5072367;28;20049;-65
2023/04/30 09:49:50;;;;;;;6.03;1.52;;;13.10;18.70;;;;;;5072803;28;20496;-65
2023/04/30 09:52:16;;;;;;;2.90;1.25;;;12.80;99.90;;;;;;5072492;28;20037;-65
2023/04/30 09:54:43;;;;;;;1.95;1.17;;;13.00;1.00;;;;;;5072218;28;20040;-65
2023/04/30 09:57:12;;;;;;;2.42;1.42;;;13.40;1.00;;;;;;5072323;28;20041;-65
2023/04/30 09:59:41;;;;;;;4.93;1.63;;;13.30;1.00;;;;;;5072360;28;20108;-66
2023/04/30 10:02:07;;;;;;;5.65;1.42;;;13.50;1.00;;;;;;5072111;28;20369;-66
2023/04/30 10:04:38;;;;;;;3.15;1.77;;;13.70;1.00;;;;;;5072284;28;20048;-66
2023/04/30 10:07:16;;;;;;;1.73;1.10;;;14.00;1.00;;;;;;5072377;28;20041;-63
2023/04/30 10:09:57;;;;;;;3.63;1.02;;;13.80;99.90;;;;;;5072346;28;20089;-65
2023/04/30 10:12:29;;;;;;;;;;;14.10;99.90;;;;;;5072497;28;20048;-64
2023/04/30 10:15:01;;;;;;;4.28;1.83;;;14.10;99.90;;;;;;5070847;28;20450;-65
2023/04/30 10:17:29;;;;;;;4.05;1.70;;;14.20;99.90;;;;;;5071871;28;20056;-65
2023/04/30 10:20:04;;;;;;;2.60;1.30;;;14.20;99.90;;;;;;5073540;28;20399;-65
2023/04/30 10:22:30;;;;;;;3.13;1.40;;;14.10;99.90;;;;;;5075706;28;20146;-66
2023/04/30 10:24:56;;;;;;;2.58;1.20;;;14.20;99.90;;;;;;5075923;28;20555;-66
2023/04/30 10:27:21;;;;;;;3.38;1.67;;;14.10;99.90;;;;;;5075582;28;20138;-67
2023/04/30 10:29:47;;;;;;;4.93;2.00;;;14.40;99.90;;;;;;5074413;28;20124;-66
2023/04/30 10:32:14;;;;;;;5.45;1.50;;;14.70;99.90;;;;;;5075899;28;20102;-66
2023/04/30 10:35:05;;;;;;;6.80;1.48;;;14.00;99.90;;;;;;5075931;28;20036;-66
2023/04/30 10:37:38;;;;;;;3.30;1.40;;;13.80;99.90;;;;;;5074128;28;20048;-66
2023/04/30 10:40:07;;;;;;;3.63;1.52;;;13.80;99.90;;;;;;5075220;28;20040;-66
2023/04/30 10:42:34;;;;;;;5.18;1.70;;;14.10;99.90;;;;;;5074137;28;20191;-67
2023/04/30 10:45:04;;;;;;;4.15;1.60;;;14.10;99.90;;;;;;5074060;28;20439;-70
2023/04/30 10:47:30;;;;;;;3.67;1.88;;;14.10;99.90;;;;;;5075371;28;20091;-69
2023/04/30 10:50:07;;;;;;;7.65;1.65;;;14.30;99.90;;;;;;5075623;28;20076;-65
2023/04/30 10:52:33;;;;;;;5.00;1.35;;;14.30;95.00;;;;;;5075593;28;20403;-73
2023/04/30 10:55:04;;;;;;;4.18;1.35;;;14.30;99.90;;;;;;5073983;28;20036;-69
2023/04/30 10:57:29;;;;;;;3.58;1.45;;;14.20;96.90;;;;;;5075465;28;20434;-66
2023/04/30 11:00:08;;;;;;;7.80;1.85;;;14.30;99.90;;;;;;5075404;28;20028;-66
2023/04/30 11:02:44;;;;;;;2.80;1.48;;;14.30;99.20;;;;;;5075369;28;20067;-66
2023/04/30 11:05:18;;;;;;;3.33;1.42;;;14.30;92.90;;;;;;5075389;28;20040;-67
2023/04/30 11:07:57;;;;;;;6.55;1.30;;;14.30;96.60;;;;;;5073883;28;20484;-67
2023/04/30 11:10:32;;;;;;;4.82;1.33;;;14.50;90.40;;;;;;5074119;28;20040;-67
2023/04/30 11:13:05;;;;;;;3.17;1.27;;;14.40;82.90;;;;;;5075211;28;20044;-67
2023/04/30 11:15:40;;;;;;;1.55;1.05;;;14.80;99.90;;;;;;5074726;28;20028;-68
2023/04/30 11:18:07;;;;;;;3.30;1.50;;;14.50;84.30;;;;;;5075110;28;20127;-69
2023/04/30 11:20:39;;;;;;;3.83;1.63;;;14.40;23.80;;;;;;5074733;28;20029;-66
2023/04/30 11:23:13;;;;;;;2.13;1.48;;;14.40;90.00;;;;;;5074912;28;20131;-66
2023/04/30 11:25:41;;;;;;;2.33;1.45;;;14.40;91.20;;;;;;5074917;28;20086;-66
2023/04/30 11:28:08;;;;;;;2.17;1.17;;;14.40;99.60;;;;;;5074796;28;20044;-68
2023/04/30 11:30:34;;;;;;;1.33;1.10;;;14.50;99.90;;;;;;5074457;28;20041;-66
2023/04/30 11:33:01;;;;;;;2.97;1.50;;;14.60;99.90;;;;;;5073464;28;20066;-66
2023/04/30 11:35:27;;;;;;;5.22;1.60;;;14.70;99.90;;;;;;5074468;28;20036;-65
2023/04/30 11:37:55;;;;;;;3.13;1.50;;;15.30;94.90;;;;;;5074517;28;20043;-66
2023/04/30 11:40:21;;;;;;;2.10;1.25;;;14.60;67.40;;;;;;5074297;28;20404;-66
2023/04/30 11:42:47;;;;;;;3.25;1.40;;;14.50;59.00;;;;;;5073050;28;20041;-66
2023/04/30 11:45:16;;;;;;;2.17;1.30;;;14.40;54.10;;;;;;5074571;28;20032;-66
2023/04/30 11:47:46;;;;;;;5.40;1.48;;;14.60;81.90;;;;;;5074114;28;20045;-67
2023/04/30 11:50:16;;;;;;;2.30;1.00;;;14.60;35.10;;;;;;5072822;28;20222;-66
2023/04/30 11:52:48;;;;;;;2.63;1.33;;;14.60;3.60;;;;;;5074073;28;20044;-66
2023/04/30 11:55:16;;;;;;;2.30;1.17;;;15.20;1.00;;;;;;5074311;28;20330;-66
2023/04/30 11:57:43;;;;;;;2.65;1.30;;;15.10;13.40;;;;;;5074302;28;20499;-67
2023/04/30 12:00:17;;;;;;;3.67;1.42;;;14.60;25.90;;;;;;5074196;28;20044;-66
2023/04/30 12:02:44;;;;;;;2.35;1.27;;;14.70;28.10;;;;;;5072550;28;20075;-66
2023/04/30 12:05:16;;;;;;;2.55;1.27;;;14.70;22.10;;;;;;5074090;28;20036;-64
2023/04/30 12:07:50;;;;;;;1.95;1.27;;;14.80;5.10;;;;;;5074052;28;20123;-66
2023/04/30 12:10:18;;;;;;;3.63;1.42;;;15.20;1.00;;;;;;5073967;28;20036;-66
2023/04/30 12:12:44;;;;;;;3.20;1.27;;;14.90;17.60;;;;;;5072695;28;20131;-66
2023/04/30 12:15:14;;;;;;;2.55;1.20;;;15.00;28.20;;;;;;5073857;28;20455;-66
2023/04/30 12:17:40;;;;;;;4.93;1.85;;;14.90;1.00;;;;;;5073308;28;20106;-65
2023/04/30 12:20:08;;;;;;;5.20;1.92;;;14.90;1.00;;;;;;5073840;28;20464;-66
2023/04/30 12:22:34;;;;;;;3.17;1.30;;;15.00;5.40;;;;;;5072554;28;20433;-65
2023/04/30 12:25:04;;;;;;;3.15;1.48;;;15.10;1.00;;;;;;5073353;28;20052;-65
2023/04/30 12:27:30;;;;;;;4.13;1.13;;;15.40;16.00;;;;;;5073985;28;20043;-64
2023/04/30 12:29:56;;;;;;;1.95;1.20;;;15.40;4.30;;;;;;5071979;28;20412;-65
2023/04/30 12:32:22;;;;;;;2.03;0.98;;;15.50;1.00;;;;;;5073412;28;20047;-66
2023/04/30 12:34:47;;;;;;;4.20;1.25;;;16.00;99.90;;;;;;5073496;28;20040;-65
2023/04/30 12:37:16;;;;;;;2.22;1.13;;;16.00;99.90;;;;;;5071734;28;20579;-65
2023/04/30 12:39:42;;;;;;;2.20;1.15;;;16.50;99.90;;;;;;5073317;28;20067;-66
2023/04/30 12:42:09;;;;;;;3.88;1.52;;;16.00;99.90;;;;;;5072708;28;20115;-66
2023/04/30 12:44:43;;;;;;;1.95;1.10;;;15.90;99.90;;;;;;5073215;28;20036;-66
2023/04/30 12:47:09;;;;;;;2.88;1.17;;;16.00;99.90;;;;;;5071898;28;20185;-66
2023/04/30 12:49:35;;;;;;;6.10;1.30;;;16.60;99.90;;;;;;5073164;28;20098;-66
2023/04/30 12:52:11;;;;;;;2.25;0.82;;;16.50;99.90;;;;;;5073157;28;20516;-66
2023/04/30 12:54:38;;;;;;;3.72;1.10;;;15.80;99.90;;;;;;5072829;28;20040;-66
2023/04/30 12:57:07;;;;;;;2.58;1.35;;;16.00;99.90;;;;;;5072651;28;20041;-66
2023/04/30 12:59:36;;;;;;;1.83;1.25;;;16.20;99.90;;;;;;5072742;28;20036;-65